createdAt,value
2018-07-07T00:04:40.361Z,14.5
2018-07-07T00:14:55.600Z,13.9
2018-07-07T00:25:10.616Z,13.9
2018-07-07T00:35:25.287Z,13.7
2018-07-07T00:45:40.107Z,13
2018-07-07T00:55:54.654Z,12.5
2018-07-07T01:06:09.794Z,12.2
2018-07-07T01:16:25.229Z,12.3
2018-07-07T01:26:40.325Z,12.5
2018-07-07T01:36:54.195Z,12.9
2018-07-07T01:47:08.794Z,12.9
2018-07-07T01:57:23.125Z,13.5
2018-07-07T02:07:38.753Z,13.5
2018-07-07T02:17:53.261Z,13.1
2018-07-07T02:28:07.870Z,12.6
2018-07-07T02:38:22.600Z,12.3
2018-07-07T02:48:37.553Z,12.5
2018-07-07T02:58:51.679Z,12.7
2018-07-07T03:09:06.182Z,12.8
2018-07-07T03:19:21.199Z,12.6
2018-07-07T03:29:35.066Z,12.5
2018-07-07T03:39:49.753Z,12.5
2018-07-07T03:50:05.195Z,12
2018-07-07T04:00:19.428Z,11.9
2018-07-07T04:10:34.490Z,12.3
2018-07-07T04:20:49.353Z,12.5
2018-07-07T04:31:04.908Z,12.9
2018-07-07T04:41:20.219Z,12.8
2018-07-07T04:51:35.884Z,12.7
2018-07-07T05:01:50.060Z,12.7
2018-07-07T05:12:03.838Z,13.5
2018-07-07T05:22:18.871Z,14.3
2018-07-07T05:32:34.617Z,14.8
2018-07-07T05:42:49.933Z,15.2
2018-07-07T05:53:05.543Z,15.5
2018-07-07T06:03:19.674Z,15.8
2018-07-07T06:13:34.722Z,16.3
2018-07-07T06:23:48.904Z,17.7
2018-07-07T06:34:03.797Z,18.8
2018-07-07T06:44:18.329Z,19.4
2018-07-07T06:54:32.402Z,20.2
2018-07-07T07:04:46.399Z,21
2018-07-07T07:15:00.653Z,21
2018-07-07T07:25:15.873Z,21.4
2018-07-07T07:35:30.960Z,21.3
2018-07-07T07:45:45.973Z,22.9
2018-07-07T07:56:00.121Z,22.8
2018-07-07T08:06:14.421Z,23.3
2018-07-07T08:16:30.183Z,23.5
2018-07-07T08:26:44.216Z,23.5
2018-07-07T08:36:58.866Z,23.6
2018-07-07T08:47:13.144Z,24.3
2018-07-07T08:57:27.607Z,24.3
2018-07-07T09:07:43.283Z,24.1
2018-07-07T09:28:12.279Z,25
2018-07-07T09:38:26.782Z,24.9
2018-07-07T09:48:41.942Z,25.3
2018-07-07T09:58:57.524Z,26.4
2018-07-07T10:09:12.923Z,25.5
2018-07-07T10:19:27.295Z,25.7
2018-07-07T10:29:43.219Z,25.6
2018-07-07T10:39:57.080Z,26.3
2018-07-07T10:50:12.257Z,25.8
2018-07-07T11:00:26.982Z,26
2018-07-07T11:10:42.365Z,26.7
2018-07-07T11:20:56.900Z,26.1
2018-07-07T11:31:12.722Z,26.6
2018-07-07T11:41:27.737Z,26.2
2018-07-07T11:51:42.468Z,25.7
2018-07-07T12:01:58.355Z,26.6
2018-07-07T12:12:12.510Z,26.4
2018-07-07T12:22:27.345Z,26.1
2018-07-07T12:32:41.535Z,27
2018-07-07T12:42:56.711Z,26.6
2018-07-07T12:53:12.328Z,26.3
2018-07-07T13:03:27.879Z,27.4
2018-07-07T13:13:42.878Z,27.4
2018-07-07T13:23:58.215Z,28.1
2018-07-07T13:34:12.565Z,28.5
2018-07-07T13:44:27.978Z,28.6
2018-07-07T13:54:43.052Z,28.8
2018-07-07T14:04:56.970Z,28.2
2018-07-07T14:15:12.862Z,27.9
2018-07-07T14:25:27.630Z,29.2
2018-07-07T14:35:43.238Z,27.8
2018-07-07T14:45:57.584Z,28.1
2018-07-07T14:56:12.939Z,28.7
2018-07-07T15:06:28.426Z,28.3
2018-07-07T15:16:44.073Z,28.1
2018-07-07T15:26:58.269Z,27.8
2018-07-07T15:37:14.199Z,27.8
2018-07-07T15:47:28.524Z,27.9
2018-07-07T15:57:44.403Z,27.5
2018-07-07T16:07:59.653Z,27.8
2018-07-07T16:18:14.066Z,27.2
2018-07-07T16:28:28.436Z,27.5
2018-07-07T16:38:42.410Z,27.1
2018-07-07T16:48:56.419Z,26.1
2018-07-07T16:59:11.215Z,26.6
2018-07-07T17:09:26.677Z,26.4
2018-07-07T17:19:40.935Z,26.3
2018-07-07T17:29:55.197Z,25.6
2018-07-07T17:40:10.259Z,25.2
2018-07-07T17:50:25.742Z,24.6
2018-07-07T18:00:41.229Z,23.8
2018-07-07T18:10:56.987Z,23
2018-07-07T18:21:10.854Z,22.7
2018-07-07T18:31:26.029Z,22.3
2018-07-07T18:41:41.272Z,21.8
2018-07-07T18:51:56.412Z,21.5
2018-07-07T19:02:11.443Z,21.1
2018-07-07T19:12:25.989Z,20.8
2018-07-07T19:22:41.439Z,20.4
2018-07-07T19:32:56.461Z,20.1
2018-07-07T19:43:12.163Z,19.7
2018-07-07T19:53:26.518Z,19.4
2018-07-07T20:03:41.298Z,18.9
2018-07-07T20:13:56.537Z,18.6
2018-07-07T20:24:12.173Z,18.3
2018-07-07T20:34:25.918Z,17.9
2018-07-07T20:44:40.329Z,17.6
2018-07-07T20:54:54.414Z,17.3
2018-07-07T21:05:08.487Z,17
2018-07-07T21:15:24.390Z,16.7
2018-07-07T21:25:39.582Z,16.4
2018-07-07T21:35:55.124Z,16
2018-07-07T21:46:10.707Z,15.8
2018-07-07T21:56:24.570Z,15.8
2018-07-07T22:06:40.210Z,15.6
2018-07-07T22:16:55.673Z,15.3
2018-07-07T22:27:10.838Z,15
2018-07-07T22:37:24.647Z,14.6
2018-07-07T22:47:40.159Z,14.2
2018-07-07T22:57:54.471Z,14.2
2018-07-07T23:08:08.823Z,14
2018-07-07T23:18:22.739Z,13.9
2018-07-07T23:28:37.430Z,13.7
2018-07-07T23:38:51.710Z,13.5
2018-07-07T23:49:06.172Z,13.4
2018-07-07T23:59:21.574Z,13.2
